sensor_id;sensor_type;location;lat;lon;timestamp;P1;durP1;ratioP1;P2;durP2;ratioP2
82170;SDS011;71755;48.038;14.346;2024-02-26T00:02:05;51.45;;;6.85;;
82170;SDS011;71755;48.038;14.346;2024-02-26T00:04:32;12.80;;;3.97;;
82170;SDS011;71755;48.038;14.346;2024-02-26T00:06:58;14.77;;;4.78;;
82170;SDS011;71755;48.038;14.346;2024-02-26T00:09:23;20.52;;;4.68;;
82170;SDS011;71755;48.038;14.346;2024-02-26T00:11:49;13.15;;;3.58;;
82170;SDS011;71755;48.038;14.346;2024-02-26T00:14:15;10.35;;;3.20;;
82170;SDS011;71755;48.038;14.346;2024-02-26T00:16:41;11.07;;;3.55;;
82170;SDS011;71755;48.038;14.346;2024-02-26T00:19:07;18.00;;;3.88;;
82170;SDS011;71755;48.038;14.346;2024-02-26T00:21:33;12.70;;;4.05;;
82170;SDS011;71755;48.038;14.346;2024-02-26T00:23:59;11.02;;;2.92;;
82170;SDS011;71755;48.038;14.346;2024-02-26T00:26:24;37.70;;;6.38;;
82170;SDS011;71755;48.038;14.346;2024-02-26T00:28:51;24.73;;;6.03;;
82170;SDS011;71755;48.038;14.346;2024-02-26T00:31:17;22.15;;;5.53;;
82170;SDS011;71755;48.038;14.346;2024-02-26T00:33:42;11.70;;;3.67;;
82170;SDS011;71755;48.038;14.346;2024-02-26T00:36:08;38.88;;;5.45;;
82170;SDS011;71755;48.038;14.346;2024-02-26T00:38:35;18.83;;;5.40;;
82170;SDS011;71755;48.038;14.346;2024-02-26T00:41:01;9.15;;;2.70;;
82170;SDS011;71755;48.038;14.346;2024-02-26T00:43:27;8.60;;;3.22;;
82170;SDS011;71755;48.038;14.346;2024-02-26T00:45:52;11.02;;;2.75;;
82170;SDS011;71755;48.038;14.346;2024-02-26T00:48:18;10.32;;;2.97;;
82170;SDS011;71755;48.038;14.346;2024-02-26T00:50:44;7.20;;;3.25;;
82170;SDS011;71755;48.038;14.346;2024-02-26T00:53:10;5.80;;;3.22;;
82170;SDS011;71755;48.038;14.346;2024-02-26T00:55:35;9.48;;;3.22;;
82170;SDS011;71755;48.038;14.346;2024-02-26T00:58:01;10.45;;;3.67;;
82170;SDS011;71755;48.038;14.346;2024-02-26T01:00:27;7.03;;;3.10;;
82170;SDS011;71755;48.038;14.346;2024-02-26T01:02:53;5.45;;;3.38;;
82170;SDS011;71755;48.038;14.346;2024-02-26T01:05:19;9.13;;;3.38;;
82170;SDS011;71755;48.038;14.346;2024-02-26T01:07:45;9.27;;;4.28;;
82170;SDS011;71755;48.038;14.346;2024-02-26T01:10:10;14.02;;;4.53;;
82170;SDS011;71755;48.038;14.346;2024-02-26T01:12:37;7.20;;;3.20;;
82170;SDS011;71755;48.038;14.346;2024-02-26T01:15:03;12.70;;;3.65;;
82170;SDS011;71755;48.038;14.346;2024-02-26T01:17:29;10.75;;;3.30;;
82170;SDS011;71755;48.038;14.346;2024-02-26T01:19:56;7.90;;;2.58;;
82170;SDS011;71755;48.038;14.346;2024-02-26T01:22:22;14.02;;;3.28;;
82170;SDS011;71755;48.038;14.346;2024-02-26T01:24:48;8.88;;;3.33;;
82170;SDS011;71755;48.038;14.346;2024-02-26T01:27:14;8.70;;;3.25;;
82170;SDS011;71755;48.038;14.346;2024-02-26T01:29:41;7.55;;;3.42;;
82170;SDS011;71755;48.038;14.346;2024-02-26T01:32:08;7.93;;;4.13;;
82170;SDS011;71755;48.038;14.346;2024-02-26T01:34:34;9.93;;;4.28;;
82170;SDS011;71755;48.038;14.346;2024-02-26T01:37:00;7.97;;;2.92;;
82170;SDS011;71755;48.038;14.346;2024-02-26T01:39:26;3.83;;;2.42;;
82170;SDS011;71755;48.038;14.346;2024-02-26T01:41:54;5.10;;;2.53;;
82170;SDS011;71755;48.038;14.346;2024-02-26T01:44:21;13.20;;;3.70;;
82170;SDS011;71755;48.038;14.346;2024-02-26T01:46:47;7.75;;;3.22;;
82170;SDS011;71755;48.038;14.346;2024-02-26T01:49:13;13.23;;;3.50;;
82170;SDS011;71755;48.038;14.346;2024-02-26T01:51:41;13.95;;;3.35;;
82170;SDS011;71755;48.038;14.346;2024-02-26T01:54:08;19.75;;;4.30;;
82170;SDS011;71755;48.038;14.346;2024-02-26T01:56:35;14.65;;;3.60;;
82170;SDS011;71755;48.038;14.346;2024-02-26T01:59:03;16.52;;;3.40;;
82170;SDS011;71755;48.038;14.346;2024-02-26T02:01:31;7.93;;;2.35;;
82170;SDS011;71755;48.038;14.346;2024-02-26T02:03:59;21.27;;;5.40;;
82170;SDS011;71755;48.038;14.346;2024-02-26T02:06:27;29.52;;;4.80;;
82170;SDS011;71755;48.038;14.346;2024-02-26T02:08:56;11.55;;;3.58;;
82170;SDS011;71755;48.038;14.346;2024-02-26T02:11:22;12.85;;;5.55;;
82170;SDS011;71755;48.038;14.346;2024-02-26T02:13:48;13.38;;;3.20;;
82170;SDS011;71755;48.038;14.346;2024-02-26T02:16:14;11.93;;;2.53;;
82170;SDS011;71755;48.038;14.346;2024-02-26T02:18:41;8.43;;;3.60;;
82170;SDS011;71755;48.038;14.346;2024-02-26T02:21:07;13.07;;;3.63;;
82170;SDS011;71755;48.038;14.346;2024-02-26T02:23:33;6.10;;;2.75;;
82170;SDS011;71755;48.038;14.346;2024-02-26T02:25:59;4.80;;;3.15;;
82170;SDS011;71755;48.038;14.346;2024-02-26T02:28:25;9.40;;;2.83;;
82170;SDS011;71755;48.038;14.346;2024-02-26T02:30:53;4.82;;;2.55;;
82170;SDS011;71755;48.038;14.346;2024-02-26T02:33:20;11.05;;;3.25;;
82170;SDS011;71755;48.038;14.346;2024-02-26T02:35:48;15.98;;;3.30;;
82170;SDS011;71755;48.038;14.346;2024-02-26T02:38:16;18.90;;;2.60;;
82170;SDS011;71755;48.038;14.346;2024-02-26T02:40:42;6.82;;;3.03;;
82170;SDS011;71755;48.038;14.346;2024-02-26T02:43:08;7.05;;;3.67;;
82170;SDS011;71755;48.038;14.346;2024-02-26T02:45:33;4.47;;;2.25;;
82170;SDS011;71755;48.038;14.346;2024-02-26T02:47:59;8.60;;;3.55;;
82170;SDS011;71755;48.038;14.346;2024-02-26T02:50:24;7.18;;;2.75;;
82170;SDS011;71755;48.038;14.346;2024-02-26T02:52:50;18.58;;;2.67;;
82170;SDS011;71755;48.038;14.346;2024-02-26T02:55:16;6.07;;;2.35;;
82170;SDS011;71755;48.038;14.346;2024-02-26T02:57:43;9.15;;;3.15;;
82170;SDS011;71755;48.038;14.346;2024-02-26T03:00:10;20.17;;;3.33;;
82170;SDS011;71755;48.038;14.346;2024-02-26T03:02:36;9.65;;;3.08;;
82170;SDS011;71755;48.038;14.346;2024-02-26T03:05:03;5.45;;;2.80;;
82170;SDS011;71755;48.038;14.346;2024-02-26T03:07:29;7.88;;;3.05;;
82170;SDS011;71755;48.038;14.346;2024-02-26T03:09:56;12.13;;;3.28;;
82170;SDS011;71755;48.038;14.346;2024-02-26T03:12:22;6.82;;;3.13;;
82170;SDS011;71755;48.038;14.346;2024-02-26T03:14:48;13.60;;;3.33;;
82170;SDS011;71755;48.038;14.346;2024-02-26T03:17:14;9.60;;;3.53;;
82170;SDS011;71755;48.038;14.346;2024-02-26T03:19:40;28.08;;;4.22;;
82170;SDS011;71755;48.038;14.346;2024-02-26T03:22:06;9.57;;;3.95;;
82170;SDS011;71755;48.038;14.346;2024-02-26T03:24:32;25.65;;;8.23;;
82170;SDS011;71755;48.038;14.346;2024-02-26T03:26:58;19.15;;;4.63;;
82170;SDS011;71755;48.038;14.346;2024-02-26T03:29:24;65.63;;;8.32;;
82170;SDS011;71755;48.038;14.346;2024-02-26T03:31:50;13.60;;;4.15;;
82170;SDS011;71755;48.038;14.346;2024-02-26T03:34:16;28.88;;;6.35;;
82170;SDS011;71755;48.038;14.346;2024-02-26T03:36:44;52.22;;;8.05;;
82170;SDS011;71755;48.038;14.346;2024-02-26T03:39:10;27.40;;;4.00;;
82170;SDS011;71755;48.038;14.346;2024-02-26T03:41:36;20.02;;;3.55;;
82170;SDS011;71755;48.038;14.346;2024-02-26T03:44:02;9.32;;;3.53;;
82170;SDS011;71755;48.038;14.346;2024-02-26T03:46:28;29.65;;;3.83;;
82170;SDS011;71755;48.038;14.346;2024-02-26T03:48:54;12.40;;;3.78;;
82170;SDS011;71755;48.038;14.346;2024-02-26T03:51:20;12.38;;;2.15;;
82170;SDS011;71755;48.038;14.346;2024-02-26T03:53:46;24.67;;;6.65;;
82170;SDS011;71755;48.038;14.346;2024-02-26T03:56:12;7.18;;;3.10;;
82170;SDS011;71755;48.038;14.346;2024-02-26T03:58:41;14.55;;;3.03;;
82170;SDS011;71755;48.038;14.346;2024-02-26T04:01:07;38.78;;;7.03;;
82170;SDS011;71755;48.038;14.346;2024-02-26T04:03:34;34.50;;;9.00;;
82170;SDS011;71755;48.038;14.346;2024-02-26T04:06:01;22.25;;;5.60;;
82170;SDS011;71755;48.038;14.346;2024-02-26T04:08:28;44.30;;;10.00;;
82170;SDS011;71755;48.038;14.346;2024-02-26T04:10:54;77.90;;;11.50;;
82170;SDS011;71755;48.038;14.346;2024-02-26T04:13:20;64.70;;;11.63;;
82170;SDS011;71755;48.038;14.346;2024-02-26T04:15:46;91.88;;;15.57;;
82170;SDS011;71755;48.038;14.346;2024-02-26T04:18:12;42.15;;;9.65;;
82170;SDS011;71755;48.038;14.346;2024-02-26T04:20:39;27.70;;;8.35;;
82170;SDS011;71755;48.038;14.346;2024-02-26T04:23:07;18.95;;;6.35;;
82170;SDS011;71755;48.038;14.346;2024-02-26T04:25:33;13.02;;;5.93;;
82170;SDS011;71755;48.038;14.346;2024-02-26T04:27:59;10.10;;;2.75;;
82170;SDS011;71755;48.038;14.346;2024-02-26T04:30:25;6.72;;;3.08;;
82170;SDS011;71755;48.038;14.346;2024-02-26T04:32:51;4.40;;;1.95;;
82170;SDS011;71755;48.038;14.346;2024-02-26T04:35:17;7.13;;;2.47;;
82170;SDS011;71755;48.038;14.346;2024-02-26T04:37:43;6.82;;;3.08;;
82170;SDS011;71755;48.038;14.346;2024-02-26T04:40:09;5.32;;;2.03;;
82170;SDS011;71755;48.038;14.346;2024-02-26T04:42:36;4.70;;;2.42;;
82170;SDS011;71755;48.038;14.346;2024-02-26T04:45:02;5.18;;;2.65;;
82170;SDS011;71755;48.038;14.346;2024-02-26T04:47:28;6.60;;;1.70;;
82170;SDS011;71755;48.038;14.346;2024-02-26T04:49:55;4.25;;;2.72;;
82170;SDS011;71755;48.038;14.346;2024-02-26T04:52:21;5.47;;;3.03;;
82170;SDS011;71755;48.038;14.346;2024-02-26T04:54:47;6.43;;;3.55;;
82170;SDS011;71755;48.038;14.346;2024-02-26T04:57:12;4.95;;;2.92;;
82170;SDS011;71755;48.038;14.346;2024-02-26T04:59:39;36.67;;;7.32;;
82170;SDS011;71755;48.038;14.346;2024-02-26T05:02:06;62.58;;;9.40;;
82170;SDS011;71755;48.038;14.346;2024-02-26T05:04:32;20.33;;;5.63;;
82170;SDS011;71755;48.038;14.346;2024-02-26T05:06:57;18.95;;;4.40;;
82170;SDS011;71755;48.038;14.346;2024-02-26T05:09:23;4.97;;;3.13;;
82170;SDS011;71755;48.038;14.346;2024-02-26T05:11:48;5.40;;;2.42;;
82170;SDS011;71755;48.038;14.346;2024-02-26T05:14:14;9.50;;;3.08;;
82170;SDS011;71755;48.038;14.346;2024-02-26T05:16:40;3.95;;;2.35;;
82170;SDS011;71755;48.038;14.346;2024-02-26T05:19:06;4.03;;;2.28;;
82170;SDS011;71755;48.038;14.346;2024-02-26T05:21:31;3.95;;;2.28;;
82170;SDS011;71755;48.038;14.346;2024-02-26T05:23:57;3.85;;;2.03;;
82170;SDS011;71755;48.038;14.346;2024-02-26T05:26:23;4.57;;;1.95;;
82170;SDS011;71755;48.038;14.346;2024-02-26T05:28:49;6.63;;;3.22;;
82170;SDS011;71755;48.038;14.346;2024-02-26T05:31:16;4.28;;;3.13;;
82170;SDS011;71755;48.038;14.346;2024-02-26T05:33:43;3.42;;;2.30;;
82170;SDS011;71755;48.038;14.346;2024-02-26T05:36:09;5.50;;;3.10;;
82170;SDS011;71755;48.038;14.346;2024-02-26T05:38:35;6.65;;;3.17;;
82170;SDS011;71755;48.038;14.346;2024-02-26T05:41:01;5.25;;;2.95;;
82170;SDS011;71755;48.038;14.346;2024-02-26T05:43:28;4.97;;;2.72;;
82170;SDS011;71755;48.038;14.346;2024-02-26T05:45:54;1.92;;;1.73;;
82170;SDS011;71755;48.038;14.346;2024-02-26T05:48:21;5.32;;;2.03;;
82170;SDS011;71755;48.038;14.346;2024-02-26T05:50:47;4.22;;;2.00;;
82170;SDS011;71755;48.038;14.346;2024-02-26T05:53:13;8.40;;;3.20;;
82170;SDS011;71755;48.038;14.346;2024-02-26T05:55:40;4.40;;;2.35;;
82170;SDS011;71755;48.038;14.346;2024-02-26T05:58:06;2.08;;;1.38;;
82170;SDS011;71755;48.038;14.346;2024-02-26T06:00:32;8.65;;;2.97;;
82170;SDS011;71755;48.038;14.346;2024-02-26T06:02:59;4.30;;;2.80;;
82170;SDS011;71755;48.038;14.346;2024-02-26T06:05:25;10.07;;;3.25;;
82170;SDS011;71755;48.038;14.346;2024-02-26T06:07:51;2.65;;;1.95;;
82170;SDS011;71755;48.038;14.346;2024-02-26T06:10:17;3.15;;;1.98;;
82170;SDS011;71755;48.038;14.346;2024-02-26T06:12:46;5.63;;;2.80;;
82170;SDS011;71755;48.038;14.346;2024-02-26T06:15:13;4.80;;;2.45;;
82170;SDS011;71755;48.038;14.346;2024-02-26T06:17:38;5.15;;;2.45;;
82170;SDS011;71755;48.038;14.346;2024-02-26T06:20:04;3.78;;;2.25;;
82170;SDS011;71755;48.038;14.346;2024-02-26T06:22:32;4.97;;;2.83;;
82170;SDS011;71755;48.038;14.346;2024-02-26T06:24:58;4.03;;;2.33;;
82170;SDS011;71755;48.038;14.346;2024-02-26T06:27:24;3.95;;;2.00;;
82170;SDS011;71755;48.038;14.346;2024-02-26T06:29:50;7.25;;;2.40;;
82170;SDS011;71755;48.038;14.346;2024-02-26T06:32:16;4.00;;;1.83;;
82170;SDS011;71755;48.038;14.346;2024-02-26T06:34:41;3.50;;;2.63;;
82170;SDS011;71755;48.038;14.346;2024-02-26T06:37:07;5.32;;;2.40;;
82170;SDS011;71755;48.038;14.346;2024-02-26T06:39:33;4.75;;;2.72;;
82170;SDS011;71755;48.038;14.346;2024-02-26T06:41:59;6.80;;;1.83;;
82170;SDS011;71755;48.038;14.346;2024-02-26T06:44:27;5.82;;;3.97;;
82170;SDS011;71755;48.038;14.346;2024-02-26T06:47:03;7.65;;;2.83;;
82170;SDS011;71755;48.038;14.346;2024-02-26T06:49:29;7.45;;;4.07;;
82170;SDS011;71755;48.038;14.346;2024-02-26T06:51:55;10.98;;;3.28;;
82170;SDS011;71755;48.038;14.346;2024-02-26T06:54:21;13.63;;;4.93;;
82170;SDS011;71755;48.038;14.346;2024-02-26T06:56:47;8.93;;;3.95;;
82170;SDS011;71755;48.038;14.346;2024-02-26T06:59:13;9.25;;;3.65;;
82170;SDS011;71755;48.038;14.346;2024-02-26T07:01:42;8.75;;;3.65;;
82170;SDS011;71755;48.038;14.346;2024-02-26T07:04:08;10.13;;;3.50;;
82170;SDS011;71755;48.038;14.346;2024-02-26T07:06:36;6.47;;;4.18;;
82170;SDS011;71755;48.038;14.346;2024-02-26T07:09:02;10.85;;;3.47;;
82170;SDS011;71755;48.038;14.346;2024-02-26T07:11:28;12.35;;;4.72;;
82170;SDS011;71755;48.038;14.346;2024-02-26T07:13:54;7.53;;;2.92;;
82170;SDS011;71755;48.038;14.346;2024-02-26T07:16:21;9.25;;;3.90;;
82170;SDS011;71755;48.038;14.346;2024-02-26T07:18:47;7.15;;;3.05;;
82170;SDS011;71755;48.038;14.346;2024-02-26T07:21:13;6.95;;;3.55;;
82170;SDS011;71755;48.038;14.346;2024-02-26T07:23:41;3.22;;;2.55;;
82170;SDS011;71755;48.038;14.346;2024-02-26T07:26:07;9.45;;;3.70;;
82170;SDS011;71755;48.038;14.346;2024-02-26T07:28:33;5.10;;;2.45;;
82170;SDS011;71755;48.038;14.346;2024-02-26T07:30:59;9.27;;;3.67;;
82170;SDS011;71755;48.038;14.346;2024-02-26T07:33:25;9.35;;;4.40;;
82170;SDS011;71755;48.038;14.346;2024-02-26T07:35:51;5.25;;;2.58;;
82170;SDS011;71755;48.038;14.346;2024-02-26T07:38:19;5.40;;;2.47;;
82170;SDS011;71755;48.038;14.346;2024-02-26T07:40:45;6.28;;;3.03;;
82170;SDS011;71755;48.038;14.346;2024-02-26T07:43:10;7.78;;;3.83;;
82170;SDS011;71755;48.038;14.346;2024-02-26T07:45:36;6.05;;;2.88;;
82170;SDS011;71755;48.038;14.346;2024-02-26T07:48:02;10.82;;;3.28;;
82170;SDS011;71755;48.038;14.346;2024-02-26T07:50:28;6.93;;;3.38;;
82170;SDS011;71755;48.038;14.346;2024-02-26T07:52:54;8.30;;;3.15;;
82170;SDS011;71755;48.038;14.346;2024-02-26T07:55:20;4.63;;;2.65;;
82170;SDS011;71755;48.038;14.346;2024-02-26T07:57:47;8.38;;;3.03;;
82170;SDS011;71755;48.038;14.346;2024-02-26T08:00:13;10.57;;;3.28;;
82170;SDS011;71755;48.038;14.346;2024-02-26T08:02:42;29.75;;;10.40;;
82170;SDS011;71755;48.038;14.346;2024-02-26T08:05:09;10.52;;;5.30;;
82170;SDS011;71755;48.038;14.346;2024-02-26T08:07:35;9.52;;;4.40;;
82170;SDS011;71755;48.038;14.346;2024-02-26T08:10:01;13.18;;;3.42;;
82170;SDS011;71755;48.038;14.346;2024-02-26T08:12:27;3.28;;;2.50;;
82170;SDS011;71755;48.038;14.346;2024-02-26T08:14:53;6.30;;;3.30;;
82170;SDS011;71755;48.038;14.346;2024-02-26T08:17:19;7.78;;;3.25;;
82170;SDS011;71755;48.038;14.346;2024-02-26T08:19:45;6.93;;;3.53;;
82170;SDS011;71755;48.038;14.346;2024-02-26T08:22:11;7.25;;;3.50;;
82170;SDS011;71755;48.038;14.346;2024-02-26T08:24:41;4.73;;;2.20;;
82170;SDS011;71755;48.038;14.346;2024-02-26T08:27:08;8.02;;;3.15;;
82170;SDS011;71755;48.038;14.346;2024-02-26T08:29:34;5.20;;;3.40;;
82170;SDS011;71755;48.038;14.346;2024-02-26T08:32:01;6.50;;;3.40;;
82170;SDS011;71755;48.038;14.346;2024-02-26T08:34:27;5.30;;;2.80;;
82170;SDS011;71755;48.038;14.346;2024-02-26T08:36:53;5.82;;;3.05;;
82170;SDS011;71755;48.038;14.346;2024-02-26T08:39:19;6.28;;;2.95;;
82170;SDS011;71755;48.038;14.346;2024-02-26T08:41:46;5.90;;;2.90;;
82170;SDS011;71755;48.038;14.346;2024-02-26T08:44:12;6.65;;;2.60;;
82170;SDS011;71755;48.038;14.346;2024-02-26T08:46:38;9.18;;;3.00;;
82170;SDS011;71755;48.038;14.346;2024-02-26T08:49:04;3.30;;;2.03;;
82170;SDS011;71755;48.038;14.346;2024-02-26T08:51:30;5.72;;;2.78;;
82170;SDS011;71755;48.038;14.346;2024-02-26T08:53:56;6.28;;;2.08;;
82170;SDS011;71755;48.038;14.346;2024-02-26T08:56:22;8.85;;;2.80;;
82170;SDS011;71755;48.038;14.346;2024-02-26T08:58:48;7.00;;;2.30;;
82170;SDS011;71755;48.038;14.346;2024-02-26T09:01:14;2.75;;;2.05;;
82170;SDS011;71755;48.038;14.346;2024-02-26T09:03:41;5.07;;;2.75;;
82170;SDS011;71755;48.038;14.346;2024-02-26T09:06:07;6.25;;;2.83;;
82170;SDS011;71755;48.038;14.346;2024-02-26T09:08:33;8.25;;;2.13;;
82170;SDS011;71755;48.038;14.346;2024-02-26T09:11:01;7.47;;;2.83;;
82170;SDS011;71755;48.038;14.346;2024-02-26T09:13:28;4.32;;;2.35;;
82170;SDS011;71755;48.038;14.346;2024-02-26T09:15:55;4.88;;;3.08;;
82170;SDS011;71755;48.038;14.346;2024-02-26T09:18:21;10.40;;;3.50;;
82170;SDS011;71755;48.038;14.346;2024-02-26T09:20:47;6.22;;;3.30;;
82170;SDS011;71755;48.038;14.346;2024-02-26T09:23:13;6.35;;;2.40;;
82170;SDS011;71755;48.038;14.346;2024-02-26T09:25:39;4.63;;;2.30;;
82170;SDS011;71755;48.038;14.346;2024-02-26T09:28:04;2.15;;;1.95;;
82170;SDS011;71755;48.038;14.346;2024-02-26T09:30:31;3.67;;;1.70;;
82170;SDS011;71755;48.038;14.346;2024-02-26T09:32:56;3.80;;;2.40;;
82170;SDS011;71755;48.038;14.346;2024-02-26T09:35:22;6.88;;;2.03;;
82170;SDS011;71755;48.038;14.346;2024-02-26T09:37:48;5.88;;;2.35;;
82170;SDS011;71755;48.038;14.346;2024-02-26T09:40:15;4.60;;;2.50;;
82170;SDS011;71755;48.038;14.346;2024-02-26T09:42:45;6.15;;;2.45;;
82170;SDS011;71755;48.038;14.346;2024-02-26T09:45:12;6.20;;;3.50;;
82170;SDS011;71755;48.038;14.346;2024-02-26T09:47:45;7.70;;;3.05;;
82170;SDS011;71755;48.038;14.346;2024-02-26T09:50:13;6.13;;;2.55;;
82170;SDS011;71755;48.038;14.346;2024-02-26T09:52:43;3.63;;;1.92;;
82170;SDS011;71755;48.038;14.346;2024-02-26T09:55:09;9.13;;;3.25;;
82170;SDS011;71755;48.038;14.346;2024-02-26T09:57:38;4.60;;;2.38;;
82170;SDS011;71755;48.038;14.346;2024-02-26T10:00:10;9.60;;;3.47;;
82170;SDS011;71755;48.038;14.346;2024-02-26T10:02:47;4.82;;;2.75;;
82170;SDS011;71755;48.038;14.346;2024-02-26T10:05:17;8.27;;;2.95;;
82170;SDS011;71755;48.038;14.346;2024-02-26T10:07:47;2.95;;;1.73;;
82170;SDS011;71755;48.038;14.346;2024-02-26T10:10:14;5.57;;;2.60;;
82170;SDS011;71755;48.038;14.346;2024-02-26T10:12:40;5.80;;;2.25;;
82170;SDS011;71755;48.038;14.346;2024-02-26T10:15:07;4.57;;;2.53;;
82170;SDS011;71755;48.038;14.346;2024-02-26T10:17:33;3.17;;;2.17;;
82170;SDS011;71755;48.038;14.346;2024-02-26T10:20:11;6.43;;;3.13;;
82170;SDS011;71755;48.038;14.346;2024-02-26T10:22:43;5.05;;;2.40;;
82170;SDS011;71755;48.038;14.346;2024-02-26T10:25:10;7.93;;;2.42;;
82170;SDS011;71755;48.038;14.346;2024-02-26T10:27:36;3.47;;;2.22;;
82170;SDS011;71755;48.038;14.346;2024-02-26T10:30:12;7.45;;;3.05;;
82170;SDS011;71755;48.038;14.346;2024-02-26T10:32:42;4.45;;;2.25;;
82170;SDS011;71755;48.038;14.346;2024-02-26T10:35:08;5.35;;;2.78;;
82170;SDS011;71755;48.038;14.346;2024-02-26T10:37:34;7.30;;;2.47;;
82170;SDS011;71755;48.038;14.346;2024-02-26T10:40:01;4.85;;;2.63;;
82170;SDS011;71755;48.038;14.346;2024-02-26T10:42:28;3.88;;;2.15;;
82170;SDS011;71755;48.038;14.346;2024-02-26T10:44:57;5.55;;;2.58;;
82170;SDS011;71755;48.038;14.346;2024-02-26T10:47:24;4.97;;;3.17;;
82170;SDS011;71755;48.038;14.346;2024-02-26T10:49:50;2.47;;;1.63;;
82170;SDS011;71755;48.038;14.346;2024-02-26T10:52:17;4.80;;;2.05;;
82170;SDS011;71755;48.038;14.346;2024-02-26T10:54:46;4.28;;;2.17;;
82170;SDS011;71755;48.038;14.346;2024-02-26T10:57:15;2.47;;;1.88;;
82170;SDS011;71755;48.038;14.346;2024-02-26T10:59:44;4.35;;;2.70;;
82170;SDS011;71755;48.038;14.346;2024-02-26T11:02:11;7.50;;;2.33;;
82170;SDS011;71755;48.038;14.346;2024-02-26T11:04:39;4.10;;;2.08;;
82170;SDS011;71755;48.038;14.346;2024-02-26T11:07:06;7.10;;;2.67;;
82170;SDS011;71755;48.038;14.346;2024-02-26T11:09:35;5.63;;;3.45;;
82170;SDS011;71755;48.038;14.346;2024-02-26T11:12:08;9.90;;;3.28;;
82170;SDS011;71755;48.038;14.346;2024-02-26T11:14:40;10.55;;;2.72;;
82170;SDS011;71755;48.038;14.346;2024-02-26T11:17:11;7.18;;;2.65;;
82170;SDS011;71755;48.038;14.346;2024-02-26T11:19:41;4.73;;;2.70;;
82170;SDS011;71755;48.038;14.346;2024-02-26T11:22:10;5.68;;;2.70;;
82170;SDS011;71755;48.038;14.346;2024-02-26T11:24:35;5.55;;;2.05;;
82170;SDS011;71755;48.038;14.346;2024-02-26T11:27:06;3.75;;;2.38;;
82170;SDS011;71755;48.038;14.346;2024-02-26T11:29:38;4.63;;;2.30;;
82170;SDS011;71755;48.038;14.346;2024-02-26T11:32:09;3.35;;;2.38;;
82170;SDS011;71755;48.038;14.346;2024-02-26T11:34:36;3.60;;;2.65;;
82170;SDS011;71755;48.038;14.346;2024-02-26T11:37:13;3.63;;;2.58;;
82170;SDS011;71755;48.038;14.346;2024-02-26T11:39:40;5.05;;;2.22;;
82170;SDS011;71755;48.038;14.346;2024-02-26T11:42:08;8.13;;;2.05;;
82170;SDS011;71755;48.038;14.346;2024-02-26T11:44:36;3.40;;;2.22;;
82170;SDS011;71755;48.038;14.346;2024-02-26T11:49:43;5.63;;;2.67;;
82170;SDS011;71755;48.038;14.346;2024-02-26T11:52:09;4.22;;;2.80;;
82170;SDS011;71755;48.038;14.346;2024-02-26T12:00:14;3.85;;;2.25;;
82170;SDS011;71755;48.038;14.346;2024-02-26T12:02:52;5.05;;;2.55;;
82170;SDS011;71755;48.038;14.346;2024-02-26T12:05:31;3.15;;;2.15;;
82170;SDS011;71755;48.038;14.346;2024-02-26T12:10:40;4.75;;;2.22;;
82170;SDS011;71755;48.038;14.346;2024-02-26T12:13:15;4.78;;;2.95;;
82170;SDS011;71755;48.038;14.346;2024-02-26T12:15:43;4.65;;;2.55;;
82170;SDS011;71755;48.038;14.346;2024-02-26T12:18:18;10.75;;;4.15;;
82170;SDS011;71755;48.038;14.346;2024-02-26T12:20:44;6.88;;;3.42;;
82170;SDS011;71755;48.038;14.346;2024-02-26T12:23:14;11.45;;;4.85;;
82170;SDS011;71755;48.038;14.346;2024-02-26T12:25:43;9.30;;;3.42;;
82170;SDS011;71755;48.038;14.346;2024-02-26T12:28:09;7.18;;;4.05;;
82170;SDS011;71755;48.038;14.346;2024-02-26T12:30:35;5.40;;;3.85;;
82170;SDS011;71755;48.038;14.346;2024-02-26T12:33:02;5.35;;;2.47;;
82170;SDS011;71755;48.038;14.346;2024-02-26T12:35:28;3.60;;;3.08;;
82170;SDS011;71755;48.038;14.346;2024-02-26T12:37:57;5.93;;;2.83;;
82170;SDS011;71755;48.038;14.346;2024-02-26T12:40:25;4.15;;;2.53;;
82170;SDS011;71755;48.038;14.346;2024-02-26T12:42:53;7.18;;;3.45;;
82170;SDS011;71755;48.038;14.346;2024-02-26T12:45:20;5.70;;;3.50;;
82170;SDS011;71755;48.038;14.346;2024-02-26T12:47:47;4.43;;;2.70;;
82170;SDS011;71755;48.038;14.346;2024-02-26T12:50:16;7.18;;;3.70;;
82170;SDS011;71755;48.038;14.346;2024-02-26T12:52:44;6.43;;;3.05;;
82170;SDS011;71755;48.038;14.346;2024-02-26T12:55:16;6.00;;;3.17;;
82170;SDS011;71755;48.038;14.346;2024-02-26T12:57:44;7.47;;;3.08;;
82170;SDS011;71755;48.038;14.346;2024-02-26T13:00:15;9.73;;;2.83;;
82170;SDS011;71755;48.038;14.346;2024-02-26T13:02:44;6.25;;;3.03;;
82170;SDS011;71755;48.038;14.346;2024-02-26T13:05:11;11.95;;;3.33;;
82170;SDS011;71755;48.038;14.346;2024-02-26T13:07:42;7.30;;;4.13;;
82170;SDS011;71755;48.038;14.346;2024-02-26T13:10:15;5.60;;;3.20;;
82170;SDS011;71755;48.038;14.346;2024-02-26T13:12:43;2.80;;;1.98;;
82170;SDS011;71755;48.038;14.346;2024-02-26T13:15:13;5.18;;;2.97;;
82170;SDS011;71755;48.038;14.346;2024-02-26T13:17:41;5.03;;;3.08;;
82170;SDS011;71755;48.038;14.346;2024-02-26T13:20:08;6.63;;;2.55;;
82170;SDS011;71755;48.038;14.346;2024-02-26T13:22:38;9.80;;;2.63;;
82170;SDS011;71755;48.038;14.346;2024-02-26T13:25:04;5.28;;;3.00;;
82170;SDS011;71755;48.038;14.346;2024-02-26T13:27:33;15.30;;;3.22;;
82170;SDS011;71755;48.038;14.346;2024-02-26T13:30:02;10.25;;;3.08;;
82170;SDS011;71755;48.038;14.346;2024-02-26T13:32:36;6.57;;;4.10;;
82170;SDS011;71755;48.038;14.346;2024-02-26T13:35:10;4.55;;;2.72;;
82170;SDS011;71755;48.038;14.346;2024-02-26T13:37:38;4.43;;;3.00;;
82170;SDS011;71755;48.038;14.346;2024-02-26T13:40:06;6.10;;;3.78;;
82170;SDS011;71755;48.038;14.346;2024-02-26T13:42:34;4.78;;;2.85;;
82170;SDS011;71755;48.038;14.346;2024-02-26T13:45:01;7.45;;;2.65;;
82170;SDS011;71755;48.038;14.346;2024-02-26T13:47:32;5.95;;;3.90;;
82170;SDS011;71755;48.038;14.346;2024-02-26T13:49:59;8.73;;;3.38;;
82170;SDS011;71755;48.038;14.346;2024-02-26T13:52:26;7.25;;;3.05;;
82170;SDS011;71755;48.038;14.346;2024-02-26T13:54:52;5.15;;;2.55;;
82170;SDS011;71755;48.038;14.346;2024-02-26T13:57:19;5.88;;;2.83;;
82170;SDS011;71755;48.038;14.346;2024-02-26T13:59:45;5.20;;;2.97;;
82170;SDS011;71755;48.038;14.346;2024-02-26T14:02:13;4.85;;;3.03;;
82170;SDS011;71755;48.038;14.346;2024-02-26T14:04:39;6.45;;;3.03;;
82170;SDS011;71755;48.038;14.346;2024-02-26T14:07:05;5.00;;;2.90;;
82170;SDS011;71755;48.038;14.346;2024-02-26T14:09:32;9.80;;;2.80;;
82170;SDS011;71755;48.038;14.346;2024-02-26T14:12:01;3.28;;;2.05;;
82170;SDS011;71755;48.038;14.346;2024-02-26T14:14:27;9.15;;;3.10;;
82170;SDS011;71755;48.038;14.346;2024-02-26T14:16:53;5.03;;;2.55;;
82170;SDS011;71755;48.038;14.346;2024-02-26T14:19:19;6.95;;;2.88;;
82170;SDS011;71755;48.038;14.346;2024-02-26T14:21:45;4.78;;;2.20;;
82170;SDS011;71755;48.038;14.346;2024-02-26T14:24:10;15.13;;;7.50;;
82170;SDS011;71755;48.038;14.346;2024-02-26T14:26:36;12.27;;;5.95;;
82170;SDS011;71755;48.038;14.346;2024-02-26T14:29:02;11.52;;;2.70;;
82170;SDS011;71755;48.038;14.346;2024-02-26T14:31:29;4.90;;;2.33;;
82170;SDS011;71755;48.038;14.346;2024-02-26T14:33:54;4.68;;;2.35;;
82170;SDS011;71755;48.038;14.346;2024-02-26T14:36:21;3.55;;;1.92;;
82170;SDS011;71755;48.038;14.346;2024-02-26T14:38:47;10.13;;;1.75;;
82170;SDS011;71755;48.038;14.346;2024-02-26T14:41:13;4.40;;;2.08;;